sensor_id;sensor_type;location;lat;lon;timestamp;P1;durP1;ratioP1;P2;durP2;ratioP2
65822;SDS011;52585;47.566;19.056;2022-07-29T00:00:06;3.20;;;2.90;;
65822;SDS011;52585;47.566;19.056;2022-07-29T00:02:34;2.60;;;2.20;;
65822;SDS011;52585;47.566;19.056;2022-07-29T00:05:00;4.20;;;2.30;;
65822;SDS011;52585;47.566;19.056;2022-07-29T00:07:26;3.30;;;2.50;;
65822;SDS011;52585;47.566;19.056;2022-07-29T00:09:52;5.00;;;2.40;;
65822;SDS011;52585;47.566;19.056;2022-07-29T00:12:23;5.90;;;2.30;;
65822;SDS011;52585;47.566;19.056;2022-07-29T00:14:50;3.30;;;2.40;;
65822;SDS011;52585;47.566;19.056;2022-07-29T00:17:15;3.40;;;2.50;;
65822;SDS011;52585;47.566;19.056;2022-07-29T00:19:41;5.30;;;2.50;;
65822;SDS011;52585;47.566;19.056;2022-07-29T00:22:07;4.90;;;2.50;;
65822;SDS011;52585;47.566;19.056;2022-07-29T00:24:32;2.70;;;2.00;;
65822;SDS011;52585;47.566;19.056;2022-07-29T00:26:58;6.50;;;2.40;;
65822;SDS011;52585;47.566;19.056;2022-07-29T00:29:24;2.90;;;2.70;;
65822;SDS011;52585;47.566;19.056;2022-07-29T00:31:50;4.20;;;2.40;;
65822;SDS011;52585;47.566;19.056;2022-07-29T00:34:16;3.50;;;2.20;;
65822;SDS011;52585;47.566;19.056;2022-07-29T00:37:01;3.50;;;2.30;;
65822;SDS011;52585;47.566;19.056;2022-07-29T00:39:26;2.60;;;2.40;;
65822;SDS011;52585;47.566;19.056;2022-07-29T00:41:52;5.40;;;2.60;;
65822;SDS011;52585;47.566;19.056;2022-07-29T00:44:17;2.70;;;2.50;;
65822;SDS011;52585;47.566;19.056;2022-07-29T00:46:43;2.40;;;2.10;;
65822;SDS011;52585;47.566;19.056;2022-07-29T00:49:09;5.80;;;2.50;;
65822;SDS011;52585;47.566;19.056;2022-07-29T00:51:37;4.70;;;2.30;;
65822;SDS011;52585;47.566;19.056;2022-07-29T00:54:04;2.60;;;2.40;;
65822;SDS011;52585;47.566;19.056;2022-07-29T00:56:31;6.00;;;2.80;;
65822;SDS011;52585;47.566;19.056;2022-07-29T00:58:57;3.10;;;2.20;;
65822;SDS011;52585;47.566;19.056;2022-07-29T01:01:24;3.70;;;2.60;;
65822;SDS011;52585;47.566;19.056;2022-07-29T01:07:34;5.40;;;2.40;;
65822;SDS011;52585;47.566;19.056;2022-07-29T01:10:05;3.00;;;2.20;;
65822;SDS011;52585;47.566;19.056;2022-07-29T01:12:34;5.90;;;2.70;;
65822;SDS011;52585;47.566;19.056;2022-07-29T01:15:04;4.80;;;2.20;;
65822;SDS011;52585;47.566;19.056;2022-07-29T01:29:49;3.80;;;2.50;;
65822;SDS011;52585;47.566;19.056;2022-07-29T01:32:25;3.10;;;2.60;;
65822;SDS011;52585;47.566;19.056;2022-07-29T01:37:55;3.80;;;2.20;;
65822;SDS011;52585;47.566;19.056;2022-07-29T01:40:46;4.60;;;2.50;;
65822;SDS011;52585;47.566;19.056;2022-07-29T01:43:19;7.70;;;3.10;;
65822;SDS011;52585;47.566;19.056;2022-07-29T01:48:44;2.60;;;2.40;;
65822;SDS011;52585;47.566;19.056;2022-07-29T01:51:19;3.00;;;2.10;;
65822;SDS011;52585;47.566;19.056;2022-07-29T01:56:34;2.80;;;2.50;;
65822;SDS011;52585;47.566;19.056;2022-07-29T01:59:04;4.10;;;2.60;;
65822;SDS011;52585;47.566;19.056;2022-07-29T02:01:34;3.70;;;2.60;;
65822;SDS011;52585;47.566;19.056;2022-07-29T02:04:03;2.60;;;2.40;;
65822;SDS011;52585;47.566;19.056;2022-07-29T02:06:33;7.10;;;2.40;;
65822;SDS011;52585;47.566;19.056;2022-07-29T02:09:03;3.30;;;2.60;;
65822;SDS011;52585;47.566;19.056;2022-07-29T02:11:33;2.70;;;2.40;;
65822;SDS011;52585;47.566;19.056;2022-07-29T02:14:01;2.50;;;2.30;;
65822;SDS011;52585;47.566;19.056;2022-07-29T02:16:30;8.10;;;2.50;;
65822;SDS011;52585;47.566;19.056;2022-07-29T02:19:01;6.00;;;2.30;;
65822;SDS011;52585;47.566;19.056;2022-07-29T02:21:29;2.50;;;2.30;;
65822;SDS011;52585;47.566;19.056;2022-07-29T02:23:59;4.00;;;2.60;;
65822;SDS011;52585;47.566;19.056;2022-07-29T02:26:28;3.90;;;2.70;;
65822;SDS011;52585;47.566;19.056;2022-07-29T02:28:57;4.20;;;2.70;;
65822;SDS011;52585;47.566;19.056;2022-07-29T02:31:26;2.90;;;2.30;;
65822;SDS011;52585;47.566;19.056;2022-07-29T02:33:57;3.90;;;2.90;;
65822;SDS011;52585;47.566;19.056;2022-07-29T02:36:24;3.60;;;2.60;;
65822;SDS011;52585;47.566;19.056;2022-07-29T02:38:55;6.00;;;2.60;;
65822;SDS011;52585;47.566;19.056;2022-07-29T02:41:50;5.20;;;2.50;;
65822;SDS011;52585;47.566;19.056;2022-07-29T02:44:20;7.50;;;2.50;;
65822;SDS011;52585;47.566;19.056;2022-07-29T02:47:23;3.00;;;2.50;;
65822;SDS011;52585;47.566;19.056;2022-07-29T02:50:20;7.00;;;2.30;;
65822;SDS011;52585;47.566;19.056;2022-07-29T02:53:21;2.80;;;2.30;;
65822;SDS011;52585;47.566;19.056;2022-07-29T02:56:08;3.40;;;2.50;;
65822;SDS011;52585;47.566;19.056;2022-07-29T02:58:41;3.60;;;2.70;;
65822;SDS011;52585;47.566;19.056;2022-07-29T03:01:24;5.30;;;2.80;;
65822;SDS011;52585;47.566;19.056;2022-07-29T03:03:54;2.90;;;2.40;;
65822;SDS011;52585;47.566;19.056;2022-07-29T03:06:23;5.10;;;2.40;;
65822;SDS011;52585;47.566;19.056;2022-07-29T03:08:51;2.80;;;2.60;;
65822;SDS011;52585;47.566;19.056;2022-07-29T03:11:18;3.40;;;2.40;;
65822;SDS011;52585;47.566;19.056;2022-07-29T03:13:44;4.20;;;2.90;;
65822;SDS011;52585;47.566;19.056;2022-07-29T03:16:11;5.00;;;2.90;;
65822;SDS011;52585;47.566;19.056;2022-07-29T03:18:38;3.80;;;2.70;;
65822;SDS011;52585;47.566;19.056;2022-07-29T03:21:05;5.00;;;2.60;;
65822;SDS011;52585;47.566;19.056;2022-07-29T03:23:33;4.40;;;2.70;;
65822;SDS011;52585;47.566;19.056;2022-07-29T03:25:59;3.00;;;2.70;;
65822;SDS011;52585;47.566;19.056;2022-07-29T03:28:26;8.20;;;2.40;;
65822;SDS011;52585;47.566;19.056;2022-07-29T03:30:55;3.00;;;2.70;;
65822;SDS011;52585;47.566;19.056;2022-07-29T03:33:29;5.20;;;2.90;;
65822;SDS011;52585;47.566;19.056;2022-07-29T03:35:56;3.30;;;2.90;;
65822;SDS011;52585;47.566;19.056;2022-07-29T03:38:24;3.90;;;2.70;;
65822;SDS011;52585;47.566;19.056;2022-07-29T03:41:03;2.70;;;2.40;;
65822;SDS011;52585;47.566;19.056;2022-07-29T03:43:37;4.80;;;2.60;;
65822;SDS011;52585;47.566;19.056;2022-07-29T03:46:07;6.40;;;3.00;;
65822;SDS011;52585;47.566;19.056;2022-07-29T03:48:37;3.50;;;2.80;;
65822;SDS011;52585;47.566;19.056;2022-07-29T03:51:07;3.60;;;3.00;;
65822;SDS011;52585;47.566;19.056;2022-07-29T03:53:33;6.60;;;3.10;;
65822;SDS011;52585;47.566;19.056;2022-07-29T03:56:02;4.20;;;3.00;;
65822;SDS011;52585;47.566;19.056;2022-07-29T03:58:30;9.00;;;2.90;;
65822;SDS011;52585;47.566;19.056;2022-07-29T04:00:58;3.00;;;2.70;;
65822;SDS011;52585;47.566;19.056;2022-07-29T04:03:24;4.70;;;3.20;;
65822;SDS011;52585;47.566;19.056;2022-07-29T04:06:06;4.90;;;2.80;;
65822;SDS011;52585;47.566;19.056;2022-07-29T04:08:33;4.40;;;3.10;;
65822;SDS011;52585;47.566;19.056;2022-07-29T04:11:00;7.50;;;3.10;;
65822;SDS011;52585;47.566;19.056;2022-07-29T04:13:27;3.60;;;2.80;;
65822;SDS011;52585;47.566;19.056;2022-07-29T04:15:52;7.50;;;3.50;;
65822;SDS011;52585;47.566;19.056;2022-07-29T04:18:18;6.30;;;2.90;;
65822;SDS011;52585;47.566;19.056;2022-07-29T04:20:44;4.60;;;3.10;;
65822;SDS011;52585;47.566;19.056;2022-07-29T04:23:10;6.40;;;2.90;;
65822;SDS011;52585;47.566;19.056;2022-07-29T04:25:39;5.00;;;2.80;;
65822;SDS011;52585;47.566;19.056;2022-07-29T04:28:07;5.90;;;3.30;;
65822;SDS011;52585;47.566;19.056;2022-07-29T04:30:35;4.40;;;3.20;;
65822;SDS011;52585;47.566;19.056;2022-07-29T04:33:03;3.60;;;2.60;;
65822;SDS011;52585;47.566;19.056;2022-07-29T04:35:34;10.30;;;2.90;;
65822;SDS011;52585;47.566;19.056;2022-07-29T04:38:03;4.00;;;3.30;;
65822;SDS011;52585;47.566;19.056;2022-07-29T04:40:30;5.10;;;3.30;;
65822;SDS011;52585;47.566;19.056;2022-07-29T04:42:59;8.20;;;3.20;;
65822;SDS011;52585;47.566;19.056;2022-07-29T04:45:26;6.30;;;3.10;;
65822;SDS011;52585;47.566;19.056;2022-07-29T04:47:52;3.60;;;3.00;;
65822;SDS011;52585;47.566;19.056;2022-07-29T04:50:17;6.80;;;3.00;;
65822;SDS011;52585;47.566;19.056;2022-07-29T04:52:43;3.30;;;3.00;;
65822;SDS011;52585;47.566;19.056;2022-07-29T04:55:09;5.90;;;3.60;;
65822;SDS011;52585;47.566;19.056;2022-07-29T04:57:35;6.60;;;3.30;;
65822;SDS011;52585;47.566;19.056;2022-07-29T05:00:03;4.20;;;3.30;;
65822;SDS011;52585;47.566;19.056;2022-07-29T05:02:30;8.60;;;3.40;;
65822;SDS011;52585;47.566;19.056;2022-07-29T05:04:56;3.80;;;3.30;;
65822;SDS011;52585;47.566;19.056;2022-07-29T05:07:22;9.60;;;3.20;;
65822;SDS011;52585;47.566;19.056;2022-07-29T05:09:48;5.40;;;3.40;;
65822;SDS011;52585;47.566;19.056;2022-07-29T05:12:14;3.80;;;3.40;;
65822;SDS011;52585;47.566;19.056;2022-07-29T05:14:40;5.70;;;3.00;;
65822;SDS011;52585;47.566;19.056;2022-07-29T05:17:05;4.90;;;3.20;;
65822;SDS011;52585;47.566;19.056;2022-07-29T05:19:31;6.60;;;3.20;;
65822;SDS011;52585;47.566;19.056;2022-07-29T05:21:57;8.60;;;3.70;;
65822;SDS011;52585;47.566;19.056;2022-07-29T05:24:22;4.30;;;3.50;;
65822;SDS011;52585;47.566;19.056;2022-07-29T05:26:48;8.10;;;3.40;;
65822;SDS011;52585;47.566;19.056;2022-07-29T05:29:14;5.00;;;3.30;;
65822;SDS011;52585;47.566;19.056;2022-07-29T05:31:40;7.50;;;3.50;;
65822;SDS011;52585;47.566;19.056;2022-07-29T05:34:05;3.30;;;3.00;;
65822;SDS011;52585;47.566;19.056;2022-07-29T05:36:31;5.40;;;3.30;;
65822;SDS011;52585;47.566;19.056;2022-07-29T05:38:57;3.50;;;3.00;;
65822;SDS011;52585;47.566;19.056;2022-07-29T05:41:22;7.20;;;3.60;;
65822;SDS011;52585;47.566;19.056;2022-07-29T05:43:48;3.70;;;3.00;;
65822;SDS011;52585;47.566;19.056;2022-07-29T05:46:14;4.40;;;3.00;;
65822;SDS011;52585;47.566;19.056;2022-07-29T05:48:40;6.40;;;3.20;;
65822;SDS011;52585;47.566;19.056;2022-07-29T05:51:06;7.20;;;3.40;;
65822;SDS011;52585;47.566;19.056;2022-07-29T05:53:31;8.50;;;3.50;;
65822;SDS011;52585;47.566;19.056;2022-07-29T05:55:57;4.60;;;2.90;;
65822;SDS011;52585;47.566;19.056;2022-07-29T05:58:23;5.60;;;3.20;;
65822;SDS011;52585;47.566;19.056;2022-07-29T06:00:49;4.70;;;3.00;;
65822;SDS011;52585;47.566;19.056;2022-07-29T06:03:14;4.40;;;3.00;;
65822;SDS011;52585;47.566;19.056;2022-07-29T06:05:40;4.90;;;2.70;;
65822;SDS011;52585;47.566;19.056;2022-07-29T06:08:06;5.80;;;3.60;;
65822;SDS011;52585;47.566;19.056;2022-07-29T06:10:32;5.10;;;2.90;;
65822;SDS011;52585;47.566;19.056;2022-07-29T06:13:00;6.60;;;3.00;;
65822;SDS011;52585;47.566;19.056;2022-07-29T06:15:25;6.30;;;2.80;;
65822;SDS011;52585;47.566;19.056;2022-07-29T06:17:52;5.10;;;2.90;;
65822;SDS011;52585;47.566;19.056;2022-07-29T06:20:18;4.80;;;3.50;;
65822;SDS011;52585;47.566;19.056;2022-07-29T06:22:50;5.60;;;3.30;;
65822;SDS011;52585;47.566;19.056;2022-07-29T06:25:16;3.90;;;3.00;;
65822;SDS011;52585;47.566;19.056;2022-07-29T06:27:41;5.40;;;2.80;;
65822;SDS011;52585;47.566;19.056;2022-07-29T06:30:07;4.80;;;3.60;;
65822;SDS011;52585;47.566;19.056;2022-07-29T06:32:33;6.20;;;3.10;;
65822;SDS011;52585;47.566;19.056;2022-07-29T06:35:04;5.80;;;3.30;;
65822;SDS011;52585;47.566;19.056;2022-07-29T06:37:31;4.40;;;3.10;;
65822;SDS011;52585;47.566;19.056;2022-07-29T06:39:56;3.80;;;3.00;;
65822;SDS011;52585;47.566;19.056;2022-07-29T06:42:44;6.00;;;3.10;;
65822;SDS011;52585;47.566;19.056;2022-07-29T06:45:13;3.80;;;3.10;;
65822;SDS011;52585;47.566;19.056;2022-07-29T06:47:39;3.80;;;3.10;;
65822;SDS011;52585;47.566;19.056;2022-07-29T06:50:05;4.20;;;3.10;;
65822;SDS011;52585;47.566;19.056;2022-07-29T06:52:31;7.60;;;3.10;;
65822;SDS011;52585;47.566;19.056;2022-07-29T06:54:57;8.40;;;3.10;;
65822;SDS011;52585;47.566;19.056;2022-07-29T06:57:23;6.90;;;3.70;;
65822;SDS011;52585;47.566;19.056;2022-07-29T06:59:49;4.50;;;3.40;;
65822;SDS011;52585;47.566;19.056;2022-07-29T07:02:14;4.60;;;3.40;;
65822;SDS011;52585;47.566;19.056;2022-07-29T07:04:40;5.60;;;3.60;;
65822;SDS011;52585;47.566;19.056;2022-07-29T07:07:06;8.50;;;3.30;;
65822;SDS011;52585;47.566;19.056;2022-07-29T07:09:32;3.50;;;3.20;;
65822;SDS011;52585;47.566;19.056;2022-07-29T07:11:57;10.50;;;3.20;;
65822;SDS011;52585;47.566;19.056;2022-07-29T07:14:23;9.40;;;3.60;;
65822;SDS011;52585;47.566;19.056;2022-07-29T07:16:51;3.80;;;3.50;;
65822;SDS011;52585;47.566;19.056;2022-07-29T07:19:17;5.70;;;3.20;;
65822;SDS011;52585;47.566;19.056;2022-07-29T07:21:44;7.30;;;3.40;;
65822;SDS011;52585;47.566;19.056;2022-07-29T07:24:10;4.30;;;3.60;;
65822;SDS011;52585;47.566;19.056;2022-07-29T07:26:35;3.60;;;3.30;;
65822;SDS011;52585;47.566;19.056;2022-07-29T07:29:01;9.70;;;3.70;;
65822;SDS011;52585;47.566;19.056;2022-07-29T07:31:30;5.10;;;2.90;;
65822;SDS011;52585;47.566;19.056;2022-07-29T07:33:56;4.60;;;3.50;;
65822;SDS011;52585;47.566;19.056;2022-07-29T07:36:24;8.70;;;3.70;;
65822;SDS011;52585;47.566;19.056;2022-07-29T07:39:21;6.10;;;3.40;;
65822;SDS011;52585;47.566;19.056;2022-07-29T07:42:09;7.00;;;4.00;;
65822;SDS011;52585;47.566;19.056;2022-07-29T07:44:39;8.50;;;3.50;;
65822;SDS011;52585;47.566;19.056;2022-07-29T07:47:05;4.80;;;3.30;;
65822;SDS011;52585;47.566;19.056;2022-07-29T07:49:31;4.40;;;3.40;;
65822;SDS011;52585;47.566;19.056;2022-07-29T07:51:56;5.70;;;3.30;;
65822;SDS011;52585;47.566;19.056;2022-07-29T07:54:22;5.70;;;3.70;;
65822;SDS011;52585;47.566;19.056;2022-07-29T07:56:48;3.70;;;3.00;;
65822;SDS011;52585;47.566;19.056;2022-07-29T07:59:15;10.50;;;3.20;;
65822;SDS011;52585;47.566;19.056;2022-07-29T08:01:42;6.40;;;3.60;;
65822;SDS011;52585;47.566;19.056;2022-07-29T08:04:08;4.50;;;3.10;;
65822;SDS011;52585;47.566;19.056;2022-07-29T08:06:35;6.20;;;3.10;;
65822;SDS011;52585;47.566;19.056;2022-07-29T08:09:03;9.90;;;3.40;;
65822;SDS011;52585;47.566;19.056;2022-07-29T08:11:30;8.10;;;3.40;;
65822;SDS011;52585;47.566;19.056;2022-07-29T08:13:57;6.80;;;3.50;;
65822;SDS011;52585;47.566;19.056;2022-07-29T08:16:26;4.40;;;3.20;;
65822;SDS011;52585;47.566;19.056;2022-07-29T08:18:53;3.80;;;3.20;;
65822;SDS011;52585;47.566;19.056;2022-07-29T08:21:23;9.10;;;3.20;;
65822;SDS011;52585;47.566;19.056;2022-07-29T08:23:51;8.40;;;3.20;;
65822;SDS011;52585;47.566;19.056;2022-07-29T08:26:43;7.20;;;3.50;;
65822;SDS011;52585;47.566;19.056;2022-07-29T08:29:09;6.70;;;3.70;;
65822;SDS011;52585;47.566;19.056;2022-07-29T08:31:37;6.90;;;3.30;;
65822;SDS011;52585;47.566;19.056;2022-07-29T08:34:05;4.70;;;3.30;;
65822;SDS011;52585;47.566;19.056;2022-07-29T08:36:32;4.80;;;3.40;;
65822;SDS011;52585;47.566;19.056;2022-07-29T08:38:59;4.10;;;3.30;;
65822;SDS011;52585;47.566;19.056;2022-07-29T08:41:26;4.90;;;3.40;;
65822;SDS011;52585;47.566;19.056;2022-07-29T08:43:51;6.70;;;3.90;;
65822;SDS011;52585;47.566;19.056;2022-07-29T08:46:18;3.90;;;3.30;;
65822;SDS011;52585;47.566;19.056;2022-07-29T08:48:45;3.80;;;3.10;;
65822;SDS011;52585;47.566;19.056;2022-07-29T08:51:14;4.00;;;3.30;;
65822;SDS011;52585;47.566;19.056;2022-07-29T08:53:43;6.90;;;3.40;;
65822;SDS011;52585;47.566;19.056;2022-07-29T08:56:14;4.20;;;3.40;;
65822;SDS011;52585;47.566;19.056;2022-07-29T08:58:43;6.60;;;3.40;;
65822;SDS011;52585;47.566;19.056;2022-07-29T09:01:21;7.00;;;3.40;;
65822;SDS011;52585;47.566;19.056;2022-07-29T09:03:49;24.10;;;7.80;;
65822;SDS011;52585;47.566;19.056;2022-07-29T09:06:18;19.30;;;5.90;;
65822;SDS011;52585;47.566;19.056;2022-07-29T09:08:47;21.60;;;7.50;;
65822;SDS011;52585;47.566;19.056;2022-07-29T09:11:14;23.30;;;7.60;;
65822;SDS011;52585;47.566;19.056;2022-07-29T09:13:40;27.60;;;8.50;;
65822;SDS011;52585;47.566;19.056;2022-07-29T09:16:06;27.50;;;7.70;;
65822;SDS011;52585;47.566;19.056;2022-07-29T09:18:36;18.20;;;6.50;;
65822;SDS011;52585;47.566;19.056;2022-07-29T09:21:11;19.60;;;6.60;;
65822;SDS011;52585;47.566;19.056;2022-07-29T09:24:11;17.90;;;6.80;;
65822;SDS011;52585;47.566;19.056;2022-07-29T09:26:40;17.90;;;6.00;;
65822;SDS011;52585;47.566;19.056;2022-07-29T09:29:16;18.30;;;5.80;;
65822;SDS011;52585;47.566;19.056;2022-07-29T09:31:47;20.60;;;6.40;;
65822;SDS011;52585;47.566;19.056;2022-07-29T09:34:21;15.70;;;6.60;;
65822;SDS011;52585;47.566;19.056;2022-07-29T09:36:50;6.30;;;4.10;;
65822;SDS011;52585;47.566;19.056;2022-07-29T09:39:44;10.60;;;3.70;;
65822;SDS011;52585;47.566;19.056;2022-07-29T09:42:13;4.00;;;3.70;;
65822;SDS011;52585;47.566;19.056;2022-07-29T09:44:52;4.10;;;3.60;;
65822;SDS011;52585;47.566;19.056;2022-07-29T09:47:19;4.80;;;3.70;;
65822;SDS011;52585;47.566;19.056;2022-07-29T09:49:56;4.90;;;3.50;;
65822;SDS011;52585;47.566;19.056;2022-07-29T09:52:27;4.70;;;3.40;;
65822;SDS011;52585;47.566;19.056;2022-07-29T09:55:15;5.30;;;3.40;;
65822;SDS011;52585;47.566;19.056;2022-07-29T09:57:46;3.30;;;3.00;;
65822;SDS011;52585;47.566;19.056;2022-07-29T10:00:18;5.80;;;3.20;;
65822;SDS011;52585;47.566;19.056;2022-07-29T10:02:46;4.70;;;3.00;;
65822;SDS011;52585;47.566;19.056;2022-07-29T10:05:26;7.40;;;3.20;;
65822;SDS011;52585;47.566;19.056;2022-07-29T10:07:56;6.70;;;3.10;;
65822;SDS011;52585;47.566;19.056;2022-07-29T10:12:56;3.60;;;2.80;;
65822;SDS011;52585;47.566;19.056;2022-07-29T10:15:35;4.60;;;3.20;;
65822;SDS011;52585;47.566;19.056;2022-07-29T10:18:07;7.40;;;3.00;;
65822;SDS011;52585;47.566;19.056;2022-07-29T10:20:34;5.80;;;3.10;;
65822;SDS011;52585;47.566;19.056;2022-07-29T10:23:01;5.90;;;3.10;;
65822;SDS011;52585;47.566;19.056;2022-07-29T10:25:26;4.10;;;2.70;;
65822;SDS011;52585;47.566;19.056;2022-07-29T10:27:52;8.10;;;3.00;;
65822;SDS011;52585;47.566;19.056;2022-07-29T10:30:21;6.00;;;2.80;;
65822;SDS011;52585;47.566;19.056;2022-07-29T10:42:25;5.60;;;3.70;;
65822;SDS011;52585;47.566;19.056;2022-07-29T10:44:54;6.70;;;3.10;;
65822;SDS011;52585;47.566;19.056;2022-07-29T10:47:25;5.70;;;2.70;;
65822;SDS011;52585;47.566;19.056;2022-07-29T10:50:00;2.90;;;2.20;;
65822;SDS011;52585;47.566;19.056;2022-07-29T10:52:54;2.40;;;2.20;;
65822;SDS011;52585;47.566;19.056;2022-07-29T10:58:17;3.20;;;2.50;;
65822;SDS011;52585;47.566;19.056;2022-07-29T11:00:50;3.20;;;2.60;;
65822;SDS011;52585;47.566;19.056;2022-07-29T11:03:48;3.50;;;2.50;;
65822;SDS011;52585;47.566;19.056;2022-07-29T11:06:17;3.80;;;2.40;;
65822;SDS011;52585;47.566;19.056;2022-07-29T11:08:43;3.60;;;2.30;;
65822;SDS011;52585;47.566;19.056;2022-07-29T11:11:33;5.30;;;2.40;;
65822;SDS011;52585;47.566;19.056;2022-07-29T11:14:01;3.50;;;2.40;;
65822;SDS011;52585;47.566;19.056;2022-07-29T11:17:03;2.90;;;2.30;;
65822;SDS011;52585;47.566;19.056;2022-07-29T11:19:30;5.90;;;3.10;;
65822;SDS011;52585;47.566;19.056;2022-07-29T11:21:57;5.20;;;2.60;;
65822;SDS011;52585;47.566;19.056;2022-07-29T11:24:28;7.30;;;3.10;;
65822;SDS011;52585;47.566;19.056;2022-07-29T11:27:14;9.10;;;3.10;;
65822;SDS011;52585;47.566;19.056;2022-07-29T11:29:56;3.90;;;3.00;;
65822;SDS011;52585;47.566;19.056;2022-07-29T11:32:36;6.90;;;3.00;;
65822;SDS011;52585;47.566;19.056;2022-07-29T11:35:23;4.40;;;2.70;;
65822;SDS011;52585;47.566;19.056;2022-07-29T11:43:51;3.50;;;2.40;;
65822;SDS011;52585;47.566;19.056;2022-07-29T11:49:12;2.70;;;2.40;;
65822;SDS011;52585;47.566;19.056;2022-07-29T11:51:38;3.40;;;2.60;;
65822;SDS011;52585;47.566;19.056;2022-07-29T11:54:08;3.20;;;2.40;;
65822;SDS011;52585;47.566;19.056;2022-07-29T11:56:41;2.60;;;2.30;;
65822;SDS011;52585;47.566;19.056;2022-07-29T11:59:11;4.70;;;2.60;;
65822;SDS011;52585;47.566;19.056;2022-07-29T12:01:36;4.80;;;2.20;;
65822;SDS011;52585;47.566;19.056;2022-07-29T12:04:17;4.70;;;2.00;;
65822;SDS011;52585;47.566;19.056;2022-07-29T12:06:51;6.80;;;2.50;;
65822;SDS011;52585;47.566;19.056;2022-07-29T12:09:23;3.10;;;2.20;;
65822;SDS011;52585;47.566;19.056;2022-07-29T12:11:58;2.40;;;2.20;;
65822;SDS011;52585;47.566;19.056;2022-07-29T12:14:29;2.50;;;2.30;;
65822;SDS011;52585;47.566;19.056;2022-07-29T12:16:56;4.00;;;2.50;;
65822;SDS011;52585;47.566;19.056;2022-07-29T12:19:23;4.20;;;2.20;;
65822;SDS011;52585;47.566;19.056;2022-07-29T12:21:53;3.30;;;2.30;;
65822;SDS011;52585;47.566;19.056;2022-07-29T12:24:21;7.60;;;2.30;;
65822;SDS011;52585;47.566;19.056;2022-07-29T12:26:53;7.20;;;2.80;;
65822;SDS011;52585;47.566;19.056;2022-07-29T12:29:20;4.20;;;2.40;;
65822;SDS011;52585;47.566;19.056;2022-07-29T12:31:46;2.50;;;2.10;;
65822;SDS011;52585;47.566;19.056;2022-07-29T12:34:20;4.60;;;2.60;;
65822;SDS011;52585;47.566;19.056;2022-07-29T12:36:50;4.30;;;2.50;;
65822;SDS011;52585;47.566;19.056;2022-07-29T12:39:16;7.30;;;2.20;;
65822;SDS011;52585;47.566;19.056;2022-07-29T12:41:43;3.50;;;2.20;;
65822;SDS011;52585;47.566;19.056;2022-07-29T12:44:10;2.40;;;2.20;;
65822;SDS011;52585;47.566;19.056;2022-07-29T12:46:37;5.50;;;2.30;;
65822;SDS011;52585;47.566;19.056;2022-07-29T12:49:03;3.50;;;2.10;;
65822;SDS011;52585;47.566;19.056;2022-07-29T12:56:28;2.40;;;2.10;;
65822;SDS011;52585;47.566;19.056;2022-07-29T12:58:54;4.70;;;2.30;;
65822;SDS011;52585;47.566;19.056;2022-07-29T13:01:20;3.00;;;1.90;;
65822;SDS011;52585;47.566;19.056;2022-07-29T13:06:38;5.80;;;2.50;;
65822;SDS011;52585;47.566;19.056;2022-07-29T13:09:20;5.60;;;2.70;;
65822;SDS011;52585;47.566;19.056;2022-07-29T13:11:51;3.50;;;2.00;;
65822;SDS011;52585;47.566;19.056;2022-07-29T13:14:37;3.30;;;2.30;;
65822;SDS011;52585;47.566;19.056;2022-07-29T13:17:06;7.00;;;2.60;;
65822;SDS011;52585;47.566;19.056;2022-07-29T13:22:17;3.60;;;2.30;;
65822;SDS011;52585;47.566;19.056;2022-07-29T13:24:56;4.20;;;2.40;;
65822;SDS011;52585;47.566;19.056;2022-07-29T13:27:29;3.60;;;2.30;;
65822;SDS011;52585;47.566;19.056;2022-07-29T13:29:58;4.00;;;2.40;;
65822;SDS011;52585;47.566;19.056;2022-07-29T13:32:27;2.50;;;2.30;;
65822;SDS011;52585;47.566;19.056;2022-07-29T13:34:56;5.10;;;2.50;;
65822;SDS011;52585;47.566;19.056;2022-07-29T13:37:23;6.80;;;2.30;;
65822;SDS011;52585;47.566;19.056;2022-07-29T13:39:49;6.20;;;2.30;;
65822;SDS011;52585;47.566;19.056;2022-07-29T13:42:15;6.20;;;2.50;;
65822;SDS011;52585;47.566;19.056;2022-07-29T13:44:40;3.50;;;2.50;;
65822;SDS011;52585;47.566;19.056;2022-07-29T13:47:07;2.80;;;2.60;;
65822;SDS011;52585;47.566;19.056;2022-07-29T13:49:33;5.10;;;2.50;;
65822;SDS011;52585;47.566;19.056;2022-07-29T13:52:00;4.40;;;2.60;;
65822;SDS011;52585;47.566;19.056;2022-07-29T13:54:27;5.00;;;2.40;;
65822;SDS011;52585;47.566;19.056;2022-07-29T13:56:52;2.70;;;2.50;;
65822;SDS011;52585;47.566;19.056;2022-07-29T13:59:18;4.20;;;2.60;;
65822;SDS011;52585;47.566;19.056;2022-07-29T14:01:44;3.60;;;2.40;;
65822;SDS011;52585;47.566;19.056;2022-07-29T14:04:10;4.80;;;2.10;;
65822;SDS011;52585;47.566;19.056;2022-07-29T14:06:37;3.10;;;2.60;;
65822;SDS011;52585;47.566;19.056;2022-07-29T14:09:04;7.40;;;2.30;;
65822;SDS011;52585;47.566;19.056;2022-07-29T14:11:32;4.80;;;2.20;;
65822;SDS011;52585;47.566;19.056;2022-07-29T14:13:58;8.70;;;2.30;;
65822;SDS011;52585;47.566;19.056;2022-07-29T14:16:24;4.30;;;2.20;;
65822;SDS011;52585;47.566;19.056;2022-07-29T14:18:49;9.40;;;2.80;;
65822;SDS011;52585;47.566;19.056;2022-07-29T14:21:15;4.40;;;2.40;;
65822;SDS011;52585;47.566;19.056;2022-07-29T14:23:41;4.00;;;2.60;;
65822;SDS011;52585;47.566;19.056;2022-07-29T14:26:06;2.90;;;2.60;;
65822;SDS011;52585;47.566;19.056;2022-07-29T14:28:32;3.60;;;2.10;;
65822;SDS011;52585;47.566;19.056;2022-07-29T14:30:58;3.30;;;2.10;;
65822;SDS011;52585;47.566;19.056;2022-07-29T14:33:23;9.10;;;2.30;;
65822;SDS011;52585;47.566;19.056;2022-07-29T14:35:49;4.30;;;2.00;;
65822;SDS011;52585;47.566;19.056;2022-07-29T14:38:15;8.00;;;2.80;;
65822;SDS011;52585;47.566;19.056;2022-07-29T14:40:40;4.70;;;2.30;;
65822;SDS011;52585;47.566;19.056;2022-07-29T14:43:06;7.30;;;2.40;;
65822;SDS011;52585;47.566;19.056;2022-07-29T14:45:32;5.00;;;2.40;;
65822;SDS011;52585;47.566;19.056;2022-07-29T14:47:57;2.90;;;2.10;;
65822;SDS011;52585;47.566;19.056;2022-07-29T14:50:25;4.40;;;2.00;;
65822;SDS011;52585;47.566;19.056;2022-07-29T14:52:52;5.00;;;2.50;;
65822;SDS011;52585;47.566;19.056;2022-07-29T14:55:18;4.50;;;2.60;;
65822;SDS011;52585;47.566;19.056;2022-07-29T14:57:43;7.10;;;2.70;;
65822;SDS011;52585;47.566;19.056;2022-07-29T15:00:10;2.90;;;2.60;;
65822;SDS011;52585;47.566;19.056;2022-07-29T15:02:36;3.90;;;2.20;;
65822;SDS011;52585;47.566;19.056;2022-07-29T15:05:05;4.30;;;2.40;;
65822;SDS011;52585;47.566;19.056;2022-07-29T15:07:31;4.40;;;2.60;;
65822;SDS011;52585;47.566;19.056;2022-07-29T15:09:56;3.40;;;2.40;;
65822;SDS011;52585;47.566;19.056;2022-07-29T15:12:29;4.20;;;2.90;;
65822;SDS011;52585;47.566;19.056;2022-07-29T15:18:17;6.90;;;2.20;;
65822;SDS011;52585;47.566;19.056;2022-07-29T15:20:55;5.50;;;2.60;;
65822;SDS011;52585;47.566;19.056;2022-07-29T15:23:21;9.80;;;2.80;;
65822;SDS011;52585;47.566;19.056;2022-07-29T15:25:46;5.00;;;2.60;;
65822;SDS011;52585;47.566;19.056;2022-07-29T15:28:12;3.40;;;2.30;;
65822;SDS011;52585;47.566;19.056;2022-07-29T15:30:38;3.30;;;2.50;;
65822;SDS011;52585;47.566;19.056;2022-07-29T15:33:09;2.80;;;2.50;;
65822;SDS011;52585;47.566;19.056;2022-07-29T15:35:36;7.80;;;3.10;;
65822;SDS011;52585;47.566;19.056;2022-07-29T15:38:02;5.20;;;2.40;;
65822;SDS011;52585;47.566;19.056;2022-07-29T15:40:40;5.80;;;2.60;;
65822;SDS011;52585;47.566;19.056;2022-07-29T15:43:12;2.60;;;2.30;;
65822;SDS011;52585;47.566;19.056;2022-07-29T15:45:39;3.50;;;2.20;;
65822;SDS011;52585;47.566;19.056;2022-07-29T15:48:08;5.10;;;2.70;;